sensor_id;sensor_type;location;lat;lon;timestamp;temperature;humidity
15343;DHT22;7771;48.478;8.936;2024-03-06T00:02:11;7.80;99.90
15343;DHT22;7771;48.478;8.936;2024-03-06T00:04:38;7.80;99.90
15343;DHT22;7771;48.478;8.936;2024-03-06T00:07:06;7.80;99.90
15343;DHT22;7771;48.478;8.936;2024-03-06T00:09:33;7.80;99.90
15343;DHT22;7771;48.478;8.936;2024-03-06T00:12:00;7.80;99.90
15343;DHT22;7771;48.478;8.936;2024-03-06T00:14:27;7.80;99.90
15343;DHT22;7771;48.478;8.936;2024-03-06T00:16:55;7.80;99.90
15343;DHT22;7771;48.478;8.936;2024-03-06T00:19:22;7.80;99.90
15343;DHT22;7771;48.478;8.936;2024-03-06T00:21:49;7.80;99.90
15343;DHT22;7771;48.478;8.936;2024-03-06T00:24:16;7.80;99.90
15343;DHT22;7771;48.478;8.936;2024-03-06T00:34:09;7.80;99.90
15343;DHT22;7771;48.478;8.936;2024-03-06T00:36:36;7.80;99.90
15343;DHT22;7771;48.478;8.936;2024-03-06T00:39:02;7.80;99.90
15343;DHT22;7771;48.478;8.936;2024-03-06T00:41:30;7.70;99.90
15343;DHT22;7771;48.478;8.936;2024-03-06T00:43:58;7.70;99.90
15343;DHT22;7771;48.478;8.936;2024-03-06T00:46:25;7.70;99.90
15343;DHT22;7771;48.478;8.936;2024-03-06T00:48:53;7.70;99.90
15343;DHT22;7771;48.478;8.936;2024-03-06T00:53:47;7.70;99.90
15343;DHT22;7771;48.478;8.936;2024-03-06T00:56:14;7.60;99.90
15343;DHT22;7771;48.478;8.936;2024-03-06T00:58:41;7.60;99.90
15343;DHT22;7771;48.478;8.936;2024-03-06T01:03:37;7.50;99.90
15343;DHT22;7771;48.478;8.936;2024-03-06T01:08:31;7.40;99.90
15343;DHT22;7771;48.478;8.936;2024-03-06T01:10:57;7.40;99.90
15343;DHT22;7771;48.478;8.936;2024-03-06T01:13:24;7.40;99.90
15343;DHT22;7771;48.478;8.936;2024-03-06T01:15:51;7.40;99.90
15343;DHT22;7771;48.478;8.936;2024-03-06T01:18:19;7.40;99.90
15343;DHT22;7771;48.478;8.936;2024-03-06T01:20:47;7.40;99.90
15343;DHT22;7771;48.478;8.936;2024-03-06T01:23:13;7.40;99.90
15343;DHT22;7771;48.478;8.936;2024-03-06T01:25:42;7.40;99.90
15343;DHT22;7771;48.478;8.936;2024-03-06T01:28:09;7.40;99.90
15343;DHT22;7771;48.478;8.936;2024-03-06T01:30:36;7.40;99.90
15343;DHT22;7771;48.478;8.936;2024-03-06T01:35:32;7.30;99.90
15343;DHT22;7771;48.478;8.936;2024-03-06T01:38:00;7.30;99.90
15343;DHT22;7771;48.478;8.936;2024-03-06T01:40:27;7.30;99.90
15343;DHT22;7771;48.478;8.936;2024-03-06T01:42:54;7.30;99.90
15343;DHT22;7771;48.478;8.936;2024-03-06T01:47:49;7.30;99.90
15343;DHT22;7771;48.478;8.936;2024-03-06T01:50:15;7.30;99.90
15343;DHT22;7771;48.478;8.936;2024-03-06T01:52:42;7.30;99.90
15343;DHT22;7771;48.478;8.936;2024-03-06T01:55:10;7.30;99.90
15343;DHT22;7771;48.478;8.936;2024-03-06T01:57:37;7.30;99.90
15343;DHT22;7771;48.478;8.936;2024-03-06T02:00:05;7.30;99.90
15343;DHT22;7771;48.478;8.936;2024-03-06T02:02:32;7.30;99.90
15343;DHT22;7771;48.478;8.936;2024-03-06T02:04:59;7.30;99.90
15343;DHT22;7771;48.478;8.936;2024-03-06T02:07:26;7.30;99.90
15343;DHT22;7771;48.478;8.936;2024-03-06T02:09:53;7.20;99.90
15343;DHT22;7771;48.478;8.936;2024-03-06T02:12:20;7.20;99.90
15343;DHT22;7771;48.478;8.936;2024-03-06T02:14:48;7.20;99.90
15343;DHT22;7771;48.478;8.936;2024-03-06T02:17:15;7.20;99.90
15343;DHT22;7771;48.478;8.936;2024-03-06T02:19:43;7.10;99.90
15343;DHT22;7771;48.478;8.936;2024-03-06T02:22:10;7.10;99.90
15343;DHT22;7771;48.478;8.936;2024-03-06T02:24:36;7.20;99.90
15343;DHT22;7771;48.478;8.936;2024-03-06T02:27:04;7.20;99.90
15343;DHT22;7771;48.478;8.936;2024-03-06T02:29:32;7.20;99.90
15343;DHT22;7771;48.478;8.936;2024-03-06T02:32:01;7.10;99.90
15343;DHT22;7771;48.478;8.936;2024-03-06T02:34:29;7.10;99.90
15343;DHT22;7771;48.478;8.936;2024-03-06T02:36:57;7.20;99.90
15343;DHT22;7771;48.478;8.936;2024-03-06T02:41:51;7.20;99.90
15343;DHT22;7771;48.478;8.936;2024-03-06T02:46:49;7.20;99.90
15343;DHT22;7771;48.478;8.936;2024-03-06T02:49:16;7.20;99.90
15343;DHT22;7771;48.478;8.936;2024-03-06T02:51:43;7.20;99.90
15343;DHT22;7771;48.478;8.936;2024-03-06T02:54:10;7.20;99.90
15343;DHT22;7771;48.478;8.936;2024-03-06T02:59:06;7.20;99.90
15343;DHT22;7771;48.478;8.936;2024-03-06T03:01:33;7.20;99.90
15343;DHT22;7771;48.478;8.936;2024-03-06T03:04:00;7.20;99.90
15343;DHT22;7771;48.478;8.936;2024-03-06T03:06:28;7.20;99.90
15343;DHT22;7771;48.478;8.936;2024-03-06T03:08:56;7.20;99.90
15343;DHT22;7771;48.478;8.936;2024-03-06T03:11:22;7.20;99.90
15343;DHT22;7771;48.478;8.936;2024-03-06T03:13:50;7.20;99.90
15343;DHT22;7771;48.478;8.936;2024-03-06T03:16:17;7.20;99.90
15343;DHT22;7771;48.478;8.936;2024-03-06T03:18:44;7.20;99.90
15343;DHT22;7771;48.478;8.936;2024-03-06T03:21:11;7.20;99.90
15343;DHT22;7771;48.478;8.936;2024-03-06T03:23:38;7.20;99.90
15343;DHT22;7771;48.478;8.936;2024-03-06T03:26:05;7.20;99.90
15343;DHT22;7771;48.478;8.936;2024-03-06T03:28:32;7.20;99.90
15343;DHT22;7771;48.478;8.936;2024-03-06T03:30:59;7.20;99.90
15343;DHT22;7771;48.478;8.936;2024-03-06T03:33:26;7.20;99.90
15343;DHT22;7771;48.478;8.936;2024-03-06T03:35:54;7.20;99.90
15343;DHT22;7771;48.478;8.936;2024-03-06T03:38:21;7.20;99.90
15343;DHT22;7771;48.478;8.936;2024-03-06T03:40:48;7.20;99.90
15343;DHT22;7771;48.478;8.936;2024-03-06T03:43:15;7.20;99.90
15343;DHT22;7771;48.478;8.936;2024-03-06T03:45:42;7.20;99.90
15343;DHT22;7771;48.478;8.936;2024-03-06T03:48:09;7.20;99.90
15343;DHT22;7771;48.478;8.936;2024-03-06T03:50:36;7.30;99.90
15343;DHT22;7771;48.478;8.936;2024-03-06T03:53:03;7.30;99.90
15343;DHT22;7771;48.478;8.936;2024-03-06T03:55:30;7.30;99.90
15343;DHT22;7771;48.478;8.936;2024-03-06T03:57:57;7.30;99.90
15343;DHT22;7771;48.478;8.936;2024-03-06T04:02:53;7.30;99.90
15343;DHT22;7771;48.478;8.936;2024-03-06T04:05:22;7.30;99.90
15343;DHT22;7771;48.478;8.936;2024-03-06T04:07:48;7.30;99.90
15343;DHT22;7771;48.478;8.936;2024-03-06T04:10:15;7.20;99.90
15343;DHT22;7771;48.478;8.936;2024-03-06T04:12:43;7.20;99.90
15343;DHT22;7771;48.478;8.936;2024-03-06T04:15:11;7.20;99.90
15343;DHT22;7771;48.478;8.936;2024-03-06T04:17:38;7.20;99.90
15343;DHT22;7771;48.478;8.936;2024-03-06T04:20:05;7.30;99.90
15343;DHT22;7771;48.478;8.936;2024-03-06T04:22:33;7.30;99.90
15343;DHT22;7771;48.478;8.936;2024-03-06T04:25:00;7.30;99.90
15343;DHT22;7771;48.478;8.936;2024-03-06T04:27:27;7.30;99.90
15343;DHT22;7771;48.478;8.936;2024-03-06T04:29:55;7.30;99.90
15343;DHT22;7771;48.478;8.936;2024-03-06T04:32:22;7.30;99.90
15343;DHT22;7771;48.478;8.936;2024-03-06T04:34:49;7.30;99.90
15343;DHT22;7771;48.478;8.936;2024-03-06T04:37:16;7.30;99.90
15343;DHT22;7771;48.478;8.936;2024-03-06T04:39:44;7.30;99.90
15343;DHT22;7771;48.478;8.936;2024-03-06T04:44:38;7.20;99.90
15343;DHT22;7771;48.478;8.936;2024-03-06T04:47:06;7.30;99.90
15343;DHT22;7771;48.478;8.936;2024-03-06T04:49:33;7.30;99.90
15343;DHT22;7771;48.478;8.936;2024-03-06T04:52:00;7.30;99.90
15343;DHT22;7771;48.478;8.936;2024-03-06T04:54:27;7.40;99.90
15343;DHT22;7771;48.478;8.936;2024-03-06T04:56:55;7.40;99.90
15343;DHT22;7771;48.478;8.936;2024-03-06T04:59:21;7.40;99.90
15343;DHT22;7771;48.478;8.936;2024-03-06T05:01:48;7.40;99.90
15343;DHT22;7771;48.478;8.936;2024-03-06T05:04:17;7.40;99.90
15343;DHT22;7771;48.478;8.936;2024-03-06T05:06:45;7.40;99.90
15343;DHT22;7771;48.478;8.936;2024-03-06T05:09:11;7.40;99.90
15343;DHT22;7771;48.478;8.936;2024-03-06T05:11:39;7.40;99.90
15343;DHT22;7771;48.478;8.936;2024-03-06T05:14:05;7.40;99.90
15343;DHT22;7771;48.478;8.936;2024-03-06T05:16:32;7.40;99.90
15343;DHT22;7771;48.478;8.936;2024-03-06T05:18:59;7.50;99.90
15343;DHT22;7771;48.478;8.936;2024-03-06T05:21:25;7.40;99.90
15343;DHT22;7771;48.478;8.936;2024-03-06T05:26:21;7.40;99.90
15343;DHT22;7771;48.478;8.936;2024-03-06T05:28:48;7.40;99.90
15343;DHT22;7771;48.478;8.936;2024-03-06T05:31:16;7.40;99.90
15343;DHT22;7771;48.478;8.936;2024-03-06T05:33:42;7.40;99.90
15343;DHT22;7771;48.478;8.936;2024-03-06T05:36:09;7.40;99.90
15343;DHT22;7771;48.478;8.936;2024-03-06T05:38:37;7.40;99.90
15343;DHT22;7771;48.478;8.936;2024-03-06T05:41:04;7.40;99.90
15343;DHT22;7771;48.478;8.936;2024-03-06T05:43:31;7.40;99.90
15343;DHT22;7771;48.478;8.936;2024-03-06T05:45:58;7.40;99.90
15343;DHT22;7771;48.478;8.936;2024-03-06T05:48:24;7.40;99.90
15343;DHT22;7771;48.478;8.936;2024-03-06T05:50:51;7.40;99.90
15343;DHT22;7771;48.478;8.936;2024-03-06T05:53:18;7.40;99.90
15343;DHT22;7771;48.478;8.936;2024-03-06T05:55:44;7.40;99.90
15343;DHT22;7771;48.478;8.936;2024-03-06T05:58:12;7.40;99.90
15343;DHT22;7771;48.478;8.936;2024-03-06T06:00:38;7.40;99.90
15343;DHT22;7771;48.478;8.936;2024-03-06T06:03:07;7.40;99.90
15343;DHT22;7771;48.478;8.936;2024-03-06T06:05:34;7.40;99.90
15343;DHT22;7771;48.478;8.936;2024-03-06T06:08:01;7.40;99.90
15343;DHT22;7771;48.478;8.936;2024-03-06T06:10:29;7.40;99.90
15343;DHT22;7771;48.478;8.936;2024-03-06T06:12:56;7.40;99.90
15343;DHT22;7771;48.478;8.936;2024-03-06T06:15:24;7.40;99.90
15343;DHT22;7771;48.478;8.936;2024-03-06T06:17:51;7.40;99.90
15343;DHT22;7771;48.478;8.936;2024-03-06T06:20:19;7.50;99.90
15343;DHT22;7771;48.478;8.936;2024-03-06T06:22:47;7.50;99.90
15343;DHT22;7771;48.478;8.936;2024-03-06T06:25:13;7.50;99.90
15343;DHT22;7771;48.478;8.936;2024-03-06T06:27:41;7.50;99.90
15343;DHT22;7771;48.478;8.936;2024-03-06T06:30:07;7.50;99.90
15343;DHT22;7771;48.478;8.936;2024-03-06T06:32:35;7.50;99.90
15343;DHT22;7771;48.478;8.936;2024-03-06T06:35:02;7.50;99.90
15343;DHT22;7771;48.478;8.936;2024-03-06T06:37:29;7.50;99.90
15343;DHT22;7771;48.478;8.936;2024-03-06T06:39:55;7.60;99.90
15343;DHT22;7771;48.478;8.936;2024-03-06T06:42:22;7.60;99.90
15343;DHT22;7771;48.478;8.936;2024-03-06T06:44:49;7.60;99.90
15343;DHT22;7771;48.478;8.936;2024-03-06T06:47:17;7.60;99.90
15343;DHT22;7771;48.478;8.936;2024-03-06T06:49:44;7.70;99.90
15343;DHT22;7771;48.478;8.936;2024-03-06T06:52:10;7.70;99.90
15343;DHT22;7771;48.478;8.936;2024-03-06T06:54:37;7.70;99.90
15343;DHT22;7771;48.478;8.936;2024-03-06T06:57:03;7.80;99.90
15343;DHT22;7771;48.478;8.936;2024-03-06T07:04:26;7.80;99.90
15343;DHT22;7771;48.478;8.936;2024-03-06T07:06:54;7.80;99.90
15343;DHT22;7771;48.478;8.936;2024-03-06T07:09:22;7.80;99.90
15343;DHT22;7771;48.478;8.936;2024-03-06T07:11:49;7.80;99.90
15343;DHT22;7771;48.478;8.936;2024-03-06T07:14:16;7.80;99.90
15343;DHT22;7771;48.478;8.936;2024-03-06T07:16:44;7.90;99.90
15343;DHT22;7771;48.478;8.936;2024-03-06T07:19:12;7.90;99.90
15343;DHT22;7771;48.478;8.936;2024-03-06T07:21:40;7.90;99.90
15343;DHT22;7771;48.478;8.936;2024-03-06T07:24:07;7.90;99.90
15343;DHT22;7771;48.478;8.936;2024-03-06T07:26:34;8.00;99.90
15343;DHT22;7771;48.478;8.936;2024-03-06T07:29:01;8.00;99.90
15343;DHT22;7771;48.478;8.936;2024-03-06T07:31:29;8.00;99.90
15343;DHT22;7771;48.478;8.936;2024-03-06T07:33:57;8.00;99.90
15343;DHT22;7771;48.478;8.936;2024-03-06T07:36:23;8.10;99.90
15343;DHT22;7771;48.478;8.936;2024-03-06T07:38:51;8.10;99.90
15343;DHT22;7771;48.478;8.936;2024-03-06T07:43:48;8.10;99.90
15343;DHT22;7771;48.478;8.936;2024-03-06T07:46:15;8.20;99.90
15343;DHT22;7771;48.478;8.936;2024-03-06T07:48:42;8.20;99.90
15343;DHT22;7771;48.478;8.936;2024-03-06T07:51:09;8.30;99.90
15343;DHT22;7771;48.478;8.936;2024-03-06T07:56:05;8.40;99.90
15343;DHT22;7771;48.478;8.936;2024-03-06T07:58:33;8.50;99.90
15343;DHT22;7771;48.478;8.936;2024-03-06T08:01:01;8.50;99.90
15343;DHT22;7771;48.478;8.936;2024-03-06T08:03:29;8.50;99.90
15343;DHT22;7771;48.478;8.936;2024-03-06T08:05:56;8.50;99.90
15343;DHT22;7771;48.478;8.936;2024-03-06T08:08:23;8.50;99.90
15343;DHT22;7771;48.478;8.936;2024-03-06T08:13:18;8.60;99.90
15343;DHT22;7771;48.478;8.936;2024-03-06T08:15:45;8.60;99.90
15343;DHT22;7771;48.478;8.936;2024-03-06T08:18:12;8.60;99.90
15343;DHT22;7771;48.478;8.936;2024-03-06T08:23:09;8.70;99.90
15343;DHT22;7771;48.478;8.936;2024-03-06T08:25:36;8.80;99.90
15343;DHT22;7771;48.478;8.936;2024-03-06T08:28:04;8.70;99.90
15343;DHT22;7771;48.478;8.936;2024-03-06T08:30:31;8.70;99.90
15343;DHT22;7771;48.478;8.936;2024-03-06T08:32:57;8.70;99.90
15343;DHT22;7771;48.478;8.936;2024-03-06T08:37:52;8.70;99.90
15343;DHT22;7771;48.478;8.936;2024-03-06T08:40:21;8.80;99.90
15343;DHT22;7771;48.478;8.936;2024-03-06T08:42:47;8.80;99.90
15343;DHT22;7771;48.478;8.936;2024-03-06T08:45:16;8.80;99.90
15343;DHT22;7771;48.478;8.936;2024-03-06T08:47:44;8.80;99.90
15343;DHT22;7771;48.478;8.936;2024-03-06T08:50:11;8.80;99.90
15343;DHT22;7771;48.478;8.936;2024-03-06T08:52:38;8.90;99.90
15343;DHT22;7771;48.478;8.936;2024-03-06T08:55:06;8.90;99.90
15343;DHT22;7771;48.478;8.936;2024-03-06T08:57:33;9.00;99.90
15343;DHT22;7771;48.478;8.936;2024-03-06T09:00:02;9.10;99.90
15343;DHT22;7771;48.478;8.936;2024-03-06T09:02:28;9.10;99.90
15343;DHT22;7771;48.478;8.936;2024-03-06T09:04:55;9.10;99.90
15343;DHT22;7771;48.478;8.936;2024-03-06T09:07:23;9.20;99.90
15343;DHT22;7771;48.478;8.936;2024-03-06T09:09:50;9.20;99.90
15343;DHT22;7771;48.478;8.936;2024-03-06T09:12:17;9.20;99.90
15343;DHT22;7771;48.478;8.936;2024-03-06T09:14:44;9.20;99.90
15343;DHT22;7771;48.478;8.936;2024-03-06T09:17:12;9.30;99.90
15343;DHT22;7771;48.478;8.936;2024-03-06T09:19:38;9.30;99.90
15343;DHT22;7771;48.478;8.936;2024-03-06T09:22:06;9.20;99.90
15343;DHT22;7771;48.478;8.936;2024-03-06T09:27:02;9.20;99.90
15343;DHT22;7771;48.478;8.936;2024-03-06T09:29:30;9.20;99.90
15343;DHT22;7771;48.478;8.936;2024-03-06T09:31:57;9.20;99.90
15343;DHT22;7771;48.478;8.936;2024-03-06T09:34:24;9.20;99.90
15343;DHT22;7771;48.478;8.936;2024-03-06T09:36:52;9.20;99.90
15343;DHT22;7771;48.478;8.936;2024-03-06T09:41:47;9.20;99.90
15343;DHT22;7771;48.478;8.936;2024-03-06T09:44:14;9.20;99.90
15343;DHT22;7771;48.478;8.936;2024-03-06T09:46:43;9.30;99.90
15343;DHT22;7771;48.478;8.936;2024-03-06T09:49:12;9.30;99.90
15343;DHT22;7771;48.478;8.936;2024-03-06T09:51:38;9.40;99.90
15343;DHT22;7771;48.478;8.936;2024-03-06T09:54:05;9.40;99.90
15343;DHT22;7771;48.478;8.936;2024-03-06T09:56:32;9.50;99.90
15343;DHT22;7771;48.478;8.936;2024-03-06T09:58:59;9.50;99.90
15343;DHT22;7771;48.478;8.936;2024-03-06T10:01:28;9.50;99.90
15343;DHT22;7771;48.478;8.936;2024-03-06T10:03:55;9.60;99.90
15343;DHT22;7771;48.478;8.936;2024-03-06T10:06:22;9.60;99.90
15343;DHT22;7771;48.478;8.936;2024-03-06T10:08:50;9.60;99.90
15343;DHT22;7771;48.478;8.936;2024-03-06T10:11:17;9.50;99.90
15343;DHT22;7771;48.478;8.936;2024-03-06T10:13:43;9.50;99.90
15343;DHT22;7771;48.478;8.936;2024-03-06T10:16:11;9.60;99.90
15343;DHT22;7771;48.478;8.936;2024-03-06T10:18:38;9.60;99.90
15343;DHT22;7771;48.478;8.936;2024-03-06T10:21:05;9.60;99.90
15343;DHT22;7771;48.478;8.936;2024-03-06T10:23:34;9.60;99.90
15343;DHT22;7771;48.478;8.936;2024-03-06T10:25:59;9.60;99.90
15343;DHT22;7771;48.478;8.936;2024-03-06T10:28:26;9.50;99.90
15343;DHT22;7771;48.478;8.936;2024-03-06T10:31:02;9.50;99.90
15343;DHT22;7771;48.478;8.936;2024-03-06T10:33:21;9.40;99.90
15343;DHT22;7771;48.478;8.936;2024-03-06T10:35:48;9.50;99.90
15343;DHT22;7771;48.478;8.936;2024-03-06T10:38:14;9.50;99.90
15343;DHT22;7771;48.478;8.936;2024-03-06T10:40:43;9.50;99.90
15343;DHT22;7771;48.478;8.936;2024-03-06T10:45:46;9.50;99.90
15343;DHT22;7771;48.478;8.936;2024-03-06T10:48:08;9.40;99.90
15343;DHT22;7771;48.478;8.936;2024-03-06T10:50:35;9.40;99.90
15343;DHT22;7771;48.478;8.936;2024-03-06T10:53:01;9.30;99.90
15343;DHT22;7771;48.478;8.936;2024-03-06T10:57:57;9.40;99.90
15343;DHT22;7771;48.478;8.936;2024-03-06T11:00:24;9.50;99.90
15343;DHT22;7771;48.478;8.936;2024-03-06T11:02:51;9.50;99.90
15343;DHT22;7771;48.478;8.936;2024-03-06T11:05:17;9.60;99.90
15343;DHT22;7771;48.478;8.936;2024-03-06T11:07:45;9.50;99.90
15343;DHT22;7771;48.478;8.936;2024-03-06T11:12:43;9.50;99.90
15343;DHT22;7771;48.478;8.936;2024-03-06T11:15:13;9.50;99.90
15343;DHT22;7771;48.478;8.936;2024-03-06T11:17:39;9.50;99.90
15343;DHT22;7771;48.478;8.936;2024-03-06T11:20:12;9.40;99.90
15343;DHT22;7771;48.478;8.936;2024-03-06T11:28:11;9.60;99.90
15343;DHT22;7771;48.478;8.936;2024-03-06T11:30:48;9.60;99.90
15343;DHT22;7771;48.478;8.936;2024-03-06T11:33:15;9.70;99.90
15343;DHT22;7771;48.478;8.936;2024-03-06T11:38:28;9.70;99.90
15343;DHT22;7771;48.478;8.936;2024-03-06T11:40:52;9.70;99.90
15343;DHT22;7771;48.478;8.936;2024-03-06T11:43:24;9.70;99.90
15343;DHT22;7771;48.478;8.936;2024-03-06T11:45:51;9.60;99.90
15343;DHT22;7771;48.478;8.936;2024-03-06T11:48:18;9.60;99.90
15343;DHT22;7771;48.478;8.936;2024-03-06T11:50:46;9.60;99.90
15343;DHT22;7771;48.478;8.936;2024-03-06T11:53:15;9.70;99.90
15343;DHT22;7771;48.478;8.936;2024-03-06T11:55:42;9.70;99.90
15343;DHT22;7771;48.478;8.936;2024-03-06T11:58:09;9.60;99.90
15343;DHT22;7771;48.478;8.936;2024-03-06T12:00:36;9.60;99.90
15343;DHT22;7771;48.478;8.936;2024-03-06T12:03:04;9.60;99.90
15343;DHT22;7771;48.478;8.936;2024-03-06T12:05:30;9.50;99.90
15343;DHT22;7771;48.478;8.936;2024-03-06T12:07:57;9.40;99.90
15343;DHT22;7771;48.478;8.936;2024-03-06T12:12:52;9.30;99.90
15343;DHT22;7771;48.478;8.936;2024-03-06T12:15:20;9.30;99.90
15343;DHT22;7771;48.478;8.936;2024-03-06T12:20:17;9.20;99.90
15343;DHT22;7771;48.478;8.936;2024-03-06T12:22:48;9.20;99.90
15343;DHT22;7771;48.478;8.936;2024-03-06T12:27:45;9.20;99.90
15343;DHT22;7771;48.478;8.936;2024-03-06T12:32:41;9.40;99.90
15343;DHT22;7771;48.478;8.936;2024-03-06T12:35:08;9.30;99.90
15343;DHT22;7771;48.478;8.936;2024-03-06T12:37:36;9.40;99.90
15343;DHT22;7771;48.478;8.936;2024-03-06T12:40:04;9.50;99.90
15343;DHT22;7771;48.478;8.936;2024-03-06T12:42:31;9.40;99.90
15343;DHT22;7771;48.478;8.936;2024-03-06T12:47:26;9.50;99.90
15343;DHT22;7771;48.478;8.936;2024-03-06T12:52:21;9.50;99.90
15343;DHT22;7771;48.478;8.936;2024-03-06T12:57:16;9.50;99.90
15343;DHT22;7771;48.478;8.936;2024-03-06T13:02:12;9.50;99.90
15343;DHT22;7771;48.478;8.936;2024-03-06T13:07:06;9.60;99.90
15343;DHT22;7771;48.478;8.936;2024-03-06T13:09:34;9.50;99.90
15343;DHT22;7771;48.478;8.936;2024-03-06T13:12:00;9.40;99.90
15343;DHT22;7771;48.478;8.936;2024-03-06T13:14:27;9.50;99.90
15343;DHT22;7771;48.478;8.936;2024-03-06T13:16:54;9.40;99.90
15343;DHT22;7771;48.478;8.936;2024-03-06T13:19:21;9.50;99.90
15343;DHT22;7771;48.478;8.936;2024-03-06T13:21:48;9.50;99.90
15343;DHT22;7771;48.478;8.936;2024-03-06T13:24:16;9.40;99.90
15343;DHT22;7771;48.478;8.936;2024-03-06T13:29:13;9.40;99.90
15343;DHT22;7771;48.478;8.936;2024-03-06T13:34:07;9.40;99.90
15343;DHT22;7771;48.478;8.936;2024-03-06T13:39:02;9.50;99.90
15343;DHT22;7771;48.478;8.936;2024-03-06T13:43:57;9.50;99.90
15343;DHT22;7771;48.478;8.936;2024-03-06T13:48:53;9.40;99.90
15343;DHT22;7771;48.478;8.936;2024-03-06T13:51:19;9.50;99.90
15343;DHT22;7771;48.478;8.936;2024-03-06T13:53:46;9.50;99.90
15343;DHT22;7771;48.478;8.936;2024-03-06T13:56:13;9.50;99.90
15343;DHT22;7771;48.478;8.936;2024-03-06T13:58:42;9.50;99.90
15343;DHT22;7771;48.478;8.936;2024-03-06T14:01:08;9.50;99.90
15343;DHT22;7771;48.478;8.936;2024-03-06T14:08:32;9.40;99.90
15343;DHT22;7771;48.478;8.936;2024-03-06T14:10:58;9.40;99.90
15343;DHT22;7771;48.478;8.936;2024-03-06T14:13:26;9.50;99.90
15343;DHT22;7771;48.478;8.936;2024-03-06T14:15:52;9.50;99.90
15343;DHT22;7771;48.478;8.936;2024-03-06T14:18:19;9.40;99.90
15343;DHT22;7771;48.478;8.936;2024-03-06T14:23:14;9.40;99.90
15343;DHT22;7771;48.478;8.936;2024-03-06T14:25:40;9.40;99.90
15343;DHT22;7771;48.478;8.936;2024-03-06T14:28:08;9.50;99.90
15343;DHT22;7771;48.478;8.936;2024-03-06T14:30:36;9.50;99.90
15343;DHT22;7771;48.478;8.936;2024-03-06T14:33:03;9.50;99.90
15343;DHT22;7771;48.478;8.936;2024-03-06T14:35:31;9.50;99.90
15343;DHT22;7771;48.478;8.936;2024-03-06T14:37:58;9.50;99.90
15343;DHT22;7771;48.478;8.936;2024-03-06T14:40:25;9.40;99.90
15343;DHT22;7771;48.478;8.936;2024-03-06T14:42:52;9.50;99.90
15343;DHT22;7771;48.478;8.936;2024-03-06T14:45:19;9.50;99.90
15343;DHT22;7771;48.478;8.936;2024-03-06T14:47:47;9.50;99.90
15343;DHT22;7771;48.478;8.936;2024-03-06T14:50:13;9.50;99.90
15343;DHT22;7771;48.478;8.936;2024-03-06T14:52:41;9.40;99.90
15343;DHT22;7771;48.478;8.936;2024-03-06T14:57:35;9.40;99.90
15343;DHT22;7771;48.478;8.936;2024-03-06T15:04:59;9.40;99.90
15343;DHT22;7771;48.478;8.936;2024-03-06T15:07:26;9.50;99.90
15343;DHT22;7771;48.478;8.936;2024-03-06T15:09:53;9.40;99.90
15343;DHT22;7771;48.478;8.936;2024-03-06T15:14:48;9.40;99.90
15343;DHT22;7771;48.478;8.936;2024-03-06T15:17:16;9.50;99.90
15343;DHT22;7771;48.478;8.936;2024-03-06T15:22:12;9.50;99.90
15343;DHT22;7771;48.478;8.936;2024-03-06T15:27:07;9.50;99.90
15343;DHT22;7771;48.478;8.936;2024-03-06T15:29:34;9.50;99.90
15343;DHT22;7771;48.478;8.936;2024-03-06T15:32:01;9.50;99.90
15343;DHT22;7771;48.478;8.936;2024-03-06T15:34:28;9.50;99.90
15343;DHT22;7771;48.478;8.936;2024-03-06T15:36:55;9.50;99.90
15343;DHT22;7771;48.478;8.936;2024-03-06T15:39:22;9.40;99.90
15343;DHT22;7771;48.478;8.936;2024-03-06T15:41:50;9.40;99.90
15343;DHT22;7771;48.478;8.936;2024-03-06T15:44:17;9.40;99.90
15343;DHT22;7771;48.478;8.936;2024-03-06T15:49:19;9.50;99.90
15343;DHT22;7771;48.478;8.936;2024-03-06T15:54:13;9.50;99.90
15343;DHT22;7771;48.478;8.936;2024-03-06T15:59:09;9.40;99.90
15343;DHT22;7771;48.478;8.936;2024-03-06T16:01:35;9.40;99.90
15343;DHT22;7771;48.478;8.936;2024-03-06T16:06:31;9.30;99.90
15343;DHT22;7771;48.478;8.936;2024-03-06T16:08:59;9.30;99.90
15343;DHT22;7771;48.478;8.936;2024-03-06T16:11:27;9.30;99.90
15343;DHT22;7771;48.478;8.936;2024-03-06T16:13:55;9.30;99.90
15343;DHT22;7771;48.478;8.936;2024-03-06T16:16:23;9.30;99.90
15343;DHT22;7771;48.478;8.936;2024-03-06T16:18:51;9.20;99.90
15343;DHT22;7771;48.478;8.936;2024-03-06T16:21:18;9.20;99.90
15343;DHT22;7771;48.478;8.936;2024-03-06T16:23:45;9.30;99.90
15343;DHT22;7771;48.478;8.936;2024-03-06T16:26:13;9.20;99.90
15343;DHT22;7771;48.478;8.936;2024-03-06T16:28:40;9.30;99.90
15343;DHT22;7771;48.478;8.936;2024-03-06T16:31:07;9.30;99.90
15343;DHT22;7771;48.478;8.936;2024-03-06T16:33:34;9.20;99.90
15343;DHT22;7771;48.478;8.936;2024-03-06T16:36:01;9.30;99.90
15343;DHT22;7771;48.478;8.936;2024-03-06T16:38:29;9.20;99.90
15343;DHT22;7771;48.478;8.936;2024-03-06T16:40:56;9.30;99.90
15343;DHT22;7771;48.478;8.936;2024-03-06T16:43:22;9.30;99.90
15343;DHT22;7771;48.478;8.936;2024-03-06T16:45:49;9.30;99.90
15343;DHT22;7771;48.478;8.936;2024-03-06T16:48:16;9.30;99.90
15343;DHT22;7771;48.478;8.936;2024-03-06T16:50:43;9.20;99.90
15343;DHT22;7771;48.478;8.936;2024-03-06T16:53:10;9.30;99.90
15343;DHT22;7771;48.478;8.936;2024-03-06T16:58:05;9.30;99.90
15343;DHT22;7771;48.478;8.936;2024-03-06T17:00:32;9.20;99.90
15343;DHT22;7771;48.478;8.936;2024-03-06T17:03:00;9.30;99.90
15343;DHT22;7771;48.478;8.936;2024-03-06T17:05:27;9.30;99.90
15343;DHT22;7771;48.478;8.936;2024-03-06T17:07:54;9.30;99.90
15343;DHT22;7771;48.478;8.936;2024-03-06T17:12:51;9.30;99.90
15343;DHT22;7771;48.478;8.936;2024-03-06T17:17:45;9.20;99.90
15343;DHT22;7771;48.478;8.936;2024-03-06T17:20:13;9.20;99.90
15343;DHT22;7771;48.478;8.936;2024-03-06T17:22:41;9.20;99.90
15343;DHT22;7771;48.478;8.936;2024-03-06T17:25:09;9.20;99.90
15343;DHT22;7771;48.478;8.936;2024-03-06T17:27:35;9.20;99.90
15343;DHT22;7771;48.478;8.936;2024-03-06T17:30:02;9.10;99.90
15343;DHT22;7771;48.478;8.936;2024-03-06T17:32:29;9.10;99.90
15343;DHT22;7771;48.478;8.936;2024-03-06T17:34:57;9.10;99.90
15343;DHT22;7771;48.478;8.936;2024-03-06T17:37:24;9.10;99.90
15343;DHT22;7771;48.478;8.936;2024-03-06T17:39:52;9.10;99.90
15343;DHT22;7771;48.478;8.936;2024-03-06T17:44:47;9.10;99.90
15343;DHT22;7771;48.478;8.936;2024-03-06T17:47:14;9.10;99.90
15343;DHT22;7771;48.478;8.936;2024-03-06T17:49:41;9.00;99.90
15343;DHT22;7771;48.478;8.936;2024-03-06T17:52:08;9.10;99.90
15343;DHT22;7771;48.478;8.936;2024-03-06T17:54:36;9.10;99.90
15343;DHT22;7771;48.478;8.936;2024-03-06T17:57:02;9.00;99.90
15343;DHT22;7771;48.478;8.936;2024-03-06T17:59:30;9.10;99.90
15343;DHT22;7771;48.478;8.936;2024-03-06T18:01:57;9.00;99.90
15343;DHT22;7771;48.478;8.936;2024-03-06T18:04:24;9.10;99.90
15343;DHT22;7771;48.478;8.936;2024-03-06T18:06:52;9.10;99.90
15343;DHT22;7771;48.478;8.936;2024-03-06T18:09:18;9.00;99.90
15343;DHT22;7771;48.478;8.936;2024-03-06T18:11:46;9.10;99.90
15343;DHT22;7771;48.478;8.936;2024-03-06T18:14:13;9.00;99.90
15343;DHT22;7771;48.478;8.936;2024-03-06T18:16:42;9.00;99.90
15343;DHT22;7771;48.478;8.936;2024-03-06T18:19:08;9.00;99.90
15343;DHT22;7771;48.478;8.936;2024-03-06T18:21:35;9.00;99.90
15343;DHT22;7771;48.478;8.936;2024-03-06T18:24:02;9.00;99.90
15343;DHT22;7771;48.478;8.936;2024-03-06T18:26:30;9.00;99.90
15343;DHT22;7771;48.478;8.936;2024-03-06T18:28:57;9.00;99.90
15343;DHT22;7771;48.478;8.936;2024-03-06T18:31:23;9.00;99.90